createdAt,value
2023-03-13T00:01:53.636Z,19.70
2023-03-13T00:04:20.151Z,19.70
2023-03-13T00:06:46.633Z,19.70
2023-03-13T00:09:13.108Z,19.70
2023-03-13T00:11:39.641Z,19.80
2023-03-13T00:14:06.148Z,19.80
2023-03-13T00:16:32.642Z,19.80
2023-03-13T00:18:59.205Z,19.80
2023-03-13T00:21:25.755Z,19.80
2023-03-13T00:23:52.231Z,19.80
2023-03-13T00:26:18.767Z,19.80
2023-03-13T00:28:46.088Z,19.90
2023-03-13T00:31:12.762Z,19.80
2023-03-13T00:33:39.265Z,19.80
2023-03-13T00:36:05.785Z,19.80
2023-03-13T00:38:32.266Z,19.90
2023-03-13T00:40:58.723Z,19.80
2023-03-13T00:43:25.222Z,19.90
2023-03-13T00:45:51.788Z,19.90
2023-03-13T00:48:18.281Z,19.90
2023-03-13T00:50:44.795Z,19.90
2023-03-13T00:53:11.305Z,19.90
2023-03-13T00:55:37.820Z,19.80
2023-03-13T00:58:04.308Z,19.80
2023-03-13T01:00:30.798Z,19.80
2023-03-13T01:02:57.373Z,19.80
2023-03-13T01:05:24.010Z,19.80
2023-03-13T01:07:50.557Z,19.90
2023-03-13T01:10:17.093Z,19.80
2023-03-13T01:12:43.606Z,19.90
2023-03-13T01:15:10.088Z,19.90
2023-03-13T01:17:36.632Z,19.90
2023-03-13T01:20:03.135Z,19.90
2023-03-13T01:22:29.672Z,19.80
2023-03-13T01:24:56.137Z,19.90
2023-03-13T01:27:22.642Z,19.80
2023-03-13T01:29:49.151Z,19.90
2023-03-13T01:32:15.698Z,19.80
2023-03-13T01:34:42.188Z,19.80
2023-03-13T01:37:08.688Z,19.80
2023-03-13T01:39:35.182Z,19.80
2023-03-13T01:42:01.687Z,19.80
2023-03-13T01:44:28.168Z,19.80
2023-03-13T01:46:54.651Z,19.90
2023-03-13T01:49:21.193Z,19.90
2023-03-13T01:51:47.712Z,19.90
2023-03-13T01:54:14.220Z,19.90
2023-03-13T01:56:40.688Z,19.90
2023-03-13T01:59:07.210Z,19.80
2023-03-13T02:01:33.745Z,19.90
2023-03-13T02:04:00.273Z,19.90
2023-03-13T02:06:26.737Z,19.90
2023-03-13T02:08:53.245Z,19.80
2023-03-13T02:11:19.764Z,19.90
2023-03-13T02:13:46.321Z,19.90
2023-03-13T02:16:12.915Z,19.90
2023-03-13T02:18:39.436Z,19.80
2023-03-13T02:21:05.908Z,19.90
2023-03-13T02:23:32.447Z,19.90
2023-03-13T02:25:58.971Z,19.90
2023-03-13T02:28:25.476Z,19.90
2023-03-13T02:30:51.989Z,19.90
2023-03-13T02:33:18.515Z,19.80
2023-03-13T02:35:45.054Z,19.80
2023-03-13T02:38:11.579Z,19.80
2023-03-13T02:40:38.076Z,19.80
2023-03-13T02:43:04.559Z,19.20
2023-03-13T02:45:31.050Z,19.70
2023-03-13T02:47:57.544Z,19.70
2023-03-13T02:50:24.014Z,19.70
2023-03-13T02:52:50.511Z,19.70
2023-03-13T02:55:17.058Z,19.70
2023-03-13T02:57:43.582Z,19.70
2023-03-13T03:00:10.070Z,19.70
2023-03-13T03:02:36.545Z,19.70
2023-03-13T03:05:03.045Z,19.70
2023-03-13T03:07:29.563Z,19.70
2023-03-13T03:09:56.036Z,19.80
2023-03-13T03:12:22.581Z,19.70
2023-03-13T03:14:49.115Z,19.70
2023-03-13T03:17:15.624Z,19.70
2023-03-13T03:19:42.140Z,19.80
2023-03-13T03:22:08.776Z,19.70
2023-03-13T03:24:35.323Z,19.80
2023-03-13T03:27:01.795Z,19.80
2023-03-13T03:29:28.344Z,19.80
2023-03-13T03:31:54.949Z,19.90
2023-03-13T03:34:21.459Z,19.80
2023-03-13T03:36:47.934Z,19.80
2023-03-13T03:39:14.407Z,19.80
2023-03-13T03:41:40.883Z,19.80
2023-03-13T03:44:07.345Z,19.80
2023-03-13T03:46:33.813Z,19.80
2023-03-13T03:49:00.286Z,19.90
2023-03-13T03:51:26.802Z,19.80
2023-03-13T03:53:53.327Z,19.80
2023-03-13T03:56:19.829Z,19.80
2023-03-13T03:58:46.297Z,19.80
2023-03-13T04:01:12.809Z,19.80
2023-03-13T04:03:39.341Z,19.80
2023-03-13T04:06:05.883Z,19.80
2023-03-13T04:08:32.385Z,19.80
2023-03-13T04:10:58.846Z,19.70
2023-03-13T04:13:25.307Z,19.80
2023-03-13T04:15:51.777Z,19.80
2023-03-13T04:18:18.316Z,19.80
2023-03-13T04:20:44.822Z,19.70
2023-03-13T04:23:11.325Z,20.00
2023-03-13T04:25:37.794Z,19.80
2023-03-13T04:28:04.324Z,19.70
2023-03-13T04:30:30.890Z,19.80
2023-03-13T04:32:57.471Z,19.80
2023-03-13T04:35:24.106Z,19.70
2023-03-13T04:37:50.638Z,19.80
2023-03-13T04:40:17.191Z,19.70
2023-03-13T04:42:43.782Z,19.80
2023-03-13T04:45:10.299Z,19.80
2023-03-13T04:47:36.824Z,19.70
2023-03-13T04:50:03.355Z,19.80
2023-03-13T04:52:29.889Z,19.70
2023-03-13T04:54:56.392Z,19.70
2023-03-13T04:57:22.900Z,19.70
2023-03-13T04:59:49.404Z,19.70
2023-03-13T05:02:15.859Z,19.80
2023-03-13T05:04:42.417Z,19.80
2023-03-13T05:07:08.901Z,19.70
2023-03-13T05:09:35.378Z,19.80
2023-03-13T05:12:01.840Z,19.70
2023-03-13T05:14:28.302Z,19.70
2023-03-13T05:16:54.816Z,19.70
2023-03-13T05:19:21.368Z,19.70
2023-03-13T05:21:47.870Z,19.70
2023-03-13T05:24:14.339Z,19.80
2023-03-13T05:26:40.843Z,19.80
2023-03-13T05:29:07.390Z,19.80
2023-03-13T05:31:33.940Z,19.80
2023-03-13T05:34:00.457Z,19.70
2023-03-13T05:36:26.959Z,19.70
2023-03-13T05:38:53.737Z,19.70
2023-03-13T05:41:20.248Z,19.80
2023-03-13T05:43:46.787Z,19.70
2023-03-13T05:46:13.292Z,19.70
2023-03-13T05:48:39.868Z,19.70
2023-03-13T05:51:06.401Z,19.60
2023-03-13T05:53:32.923Z,19.60
2023-03-13T05:55:59.386Z,19.50
2023-03-13T05:58:25.870Z,19.60
2023-03-13T06:00:52.407Z,19.70
2023-03-13T06:03:18.938Z,20.50
2023-03-13T06:05:45.480Z,19.60
2023-03-13T06:08:11.963Z,19.60
2023-03-13T06:10:38.470Z,19.60
2023-03-13T06:13:18.731Z,19.40
2023-03-13T06:15:46.118Z,19.70
2023-03-13T06:18:12.622Z,19.60
2023-03-13T06:20:40.262Z,19.60
2023-03-13T06:23:08.127Z,20.20
2023-03-13T06:25:34.601Z,19.60
2023-03-13T06:28:01.069Z,19.60
2023-03-13T06:30:27.563Z,19.60
2023-03-13T06:32:54.145Z,19.60
2023-03-13T06:35:20.691Z,19.70
2023-03-13T06:37:47.153Z,19.60
2023-03-13T06:40:13.726Z,19.70
2023-03-13T06:42:40.203Z,19.80
2023-03-13T06:45:06.682Z,19.70
2023-03-13T06:47:33.155Z,19.70
2023-03-13T06:49:59.700Z,19.70
2023-03-13T06:52:34.165Z,19.60
2023-03-13T06:55:07.910Z,19.60
2023-03-13T06:57:34.446Z,19.70
2023-03-13T07:00:00.942Z,19.70
2023-03-13T07:02:27.473Z,19.80
2023-03-13T07:04:53.956Z,19.80
2023-03-13T07:07:31.302Z,19.80
2023-03-13T07:09:58.420Z,19.80
2023-03-13T07:12:24.885Z,19.80
2023-03-13T07:14:51.417Z,19.70
2023-03-13T07:17:17.923Z,19.70
2023-03-13T07:19:44.452Z,19.70
2023-03-13T07:22:10.965Z,19.80
2023-03-13T07:24:37.435Z,19.70
2023-03-13T07:27:07.468Z,19.70
2023-03-13T07:29:34.458Z,19.70
2023-03-13T07:32:01.033Z,19.70
2023-03-13T07:34:27.601Z,19.70
2023-03-13T07:36:54.127Z,19.70
2023-03-13T07:39:20.617Z,19.70
2023-03-13T07:41:47.089Z,19.70
2023-03-13T07:44:13.608Z,19.60
2023-03-13T07:46:40.337Z,19.70
2023-03-13T07:49:06.999Z,19.70
2023-03-13T07:51:43.493Z,19.70
2023-03-13T07:54:10.643Z,19.60
2023-03-13T07:56:37.164Z,19.70
2023-03-13T07:59:03.734Z,19.80
2023-03-13T08:01:31.238Z,19.70
2023-03-13T08:03:57.946Z,19.70
2023-03-13T08:06:24.415Z,19.70
2023-03-13T08:08:50.884Z,19.80
2023-03-13T08:11:17.434Z,19.70
2023-03-13T08:13:43.951Z,19.70
2023-03-13T08:16:10.583Z,19.80
2023-03-13T08:18:37.338Z,19.70
2023-03-13T08:21:03.867Z,19.80
2023-03-13T08:23:30.419Z,19.60
2023-03-13T08:25:56.876Z,19.70
2023-03-13T08:28:23.374Z,19.60
2023-03-13T08:30:49.900Z,19.60
2023-03-13T08:33:16.438Z,20.10
2023-03-13T08:35:42.934Z,19.70
2023-03-13T08:38:09.457Z,19.70
2023-03-13T08:40:35.995Z,19.70
2023-03-13T08:43:02.510Z,19.90
2023-03-13T08:45:28.976Z,19.70
2023-03-13T08:47:55.527Z,19.80
2023-03-13T08:50:22.053Z,19.70
2023-03-13T08:52:48.563Z,19.70
2023-03-13T08:55:15.084Z,19.60
2023-03-13T08:57:41.626Z,19.60
2023-03-13T09:00:08.115Z,19.60
2023-03-13T09:02:34.618Z,19.60
2023-03-13T09:05:01.209Z,19.50
2023-03-13T09:07:27.696Z,19.60
2023-03-13T09:09:54.226Z,19.60
2023-03-13T09:12:30.429Z,19.70
2023-03-13T09:14:57.770Z,19.70
2023-03-13T09:17:24.277Z,19.60
2023-03-13T09:19:59.707Z,19.60
2023-03-13T09:22:27.196Z,19.70
2023-03-13T09:24:53.726Z,19.70
2023-03-13T09:27:20.254Z,19.70
2023-03-13T09:29:46.745Z,19.60
2023-03-13T09:32:13.287Z,19.70
2023-03-13T09:34:39.824Z,19.70
2023-03-13T09:37:06.343Z,19.70
2023-03-13T09:39:32.812Z,19.70
2023-03-13T09:41:59.298Z,19.70
2023-03-13T09:44:25.836Z,19.70
2023-03-13T09:46:52.407Z,19.70
2023-03-13T09:49:19.021Z,19.80
2023-03-13T09:51:45.520Z,19.80
2023-03-13T09:54:12.022Z,19.70
2023-03-13T09:56:38.553Z,19.70
2023-03-13T09:59:05.005Z,19.80
2023-03-13T10:01:31.587Z,19.80
2023-03-13T10:03:58.212Z,19.80
2023-03-13T10:06:24.728Z,19.80
2023-03-13T10:08:51.210Z,19.90
2023-03-13T10:11:17.726Z,19.80
2023-03-13T10:13:44.202Z,19.90
2023-03-13T10:16:10.869Z,19.90
2023-03-13T10:18:37.405Z,19.90
2023-03-13T10:21:03.936Z,19.90
2023-03-13T10:23:30.426Z,19.80
2023-03-13T10:25:56.893Z,19.90
2023-03-13T10:28:23.382Z,19.90
2023-03-13T10:30:49.930Z,20.00
2023-03-13T10:33:16.542Z,20.00
2023-03-13T10:35:43.151Z,19.90
2023-03-13T10:38:09.677Z,19.90
2023-03-13T10:40:36.205Z,19.90
2023-03-13T10:43:02.943Z,20.30
2023-03-13T10:45:29.511Z,20.00
2023-03-13T10:47:56.026Z,19.90
2023-03-13T10:50:22.542Z,20.00
2023-03-13T10:52:49.056Z,20.00
2023-03-13T10:55:15.551Z,19.90
2023-03-13T10:57:42.089Z,20.00
2023-03-13T11:00:08.592Z,20.00
2023-03-13T11:02:35.157Z,19.90
2023-03-13T11:05:02.111Z,19.90
2023-03-13T11:07:28.581Z,19.90
2023-03-13T11:09:55.079Z,19.90
2023-03-13T11:12:21.569Z,19.80
2023-03-13T11:14:48.097Z,19.80
2023-03-13T11:17:14.611Z,19.90
2023-03-13T11:19:41.236Z,19.90
2023-03-13T11:22:07.837Z,20.60
2023-03-13T11:24:34.434Z,19.80
2023-03-13T11:27:05.349Z,19.90
2023-03-13T11:29:32.067Z,19.90
2023-03-13T11:31:58.700Z,19.90
2023-03-13T11:34:25.237Z,19.90
2023-03-13T11:36:51.725Z,19.90
2023-03-13T11:39:18.223Z,20.00
2023-03-13T11:41:44.754Z,20.00
2023-03-13T11:44:11.349Z,20.00
2023-03-13T11:46:37.931Z,20.00
2023-03-13T11:49:04.506Z,20.00
2023-03-13T11:51:31.018Z,20.10
2023-03-13T11:53:57.584Z,20.00
2023-03-13T11:56:24.141Z,20.00
2023-03-13T11:58:50.643Z,20.00
2023-03-13T12:01:17.230Z,19.90
2023-03-13T12:03:43.793Z,19.90
2023-03-13T12:06:21.852Z,20.00
2023-03-13T12:08:53.662Z,19.90
2023-03-13T12:11:20.133Z,19.90
2023-03-13T12:13:46.627Z,19.90
2023-03-13T12:16:13.154Z,19.80
2023-03-13T12:18:39.714Z,19.90
2023-03-13T12:21:06.236Z,19.80
2023-03-13T12:23:33.074Z,19.70
2023-03-13T12:25:59.612Z,19.80
2023-03-13T12:28:26.252Z,19.80
2023-03-13T12:30:52.854Z,19.80
2023-03-13T12:33:19.387Z,20.40
2023-03-13T12:35:45.935Z,19.80
2023-03-13T12:38:12.412Z,19.80
2023-03-13T12:40:38.902Z,19.80
2023-03-13T12:43:05.497Z,18.90
2023-03-13T12:45:32.050Z,19.80
2023-03-13T12:47:58.609Z,19.70
2023-03-13T12:50:25.137Z,19.70
2023-03-13T12:52:51.647Z,19.70
2023-03-13T12:55:18.207Z,19.70
2023-03-13T12:57:44.775Z,19.70
2023-03-13T13:00:11.296Z,19.70
2023-03-13T13:02:37.800Z,19.70
2023-03-13T13:05:04.260Z,19.60
2023-03-13T13:07:30.780Z,19.60
2023-03-13T13:09:57.257Z,19.70
2023-03-13T13:12:23.784Z,19.70
2023-03-13T13:14:50.375Z,19.70
2023-03-13T13:17:16.922Z,19.70
2023-03-13T13:19:43.389Z,19.70
2023-03-13T13:22:09.912Z,19.60
2023-03-13T13:24:36.411Z,19.70
2023-03-13T13:27:02.936Z,19.70
2023-03-13T13:29:29.440Z,19.70
2023-03-13T13:31:55.974Z,19.60
2023-03-13T13:34:22.497Z,19.60
2023-03-13T13:36:48.965Z,19.60
2023-03-13T13:39:16.618Z,19.60
2023-03-13T13:41:43.143Z,19.60
2023-03-13T13:44:09.667Z,19.60
2023-03-13T13:46:36.264Z,19.60
2023-03-13T13:49:02.846Z,19.60
2023-03-13T13:51:29.376Z,19.60
2023-03-13T13:53:55.937Z,19.70
2023-03-13T13:56:22.533Z,19.50
2023-03-13T13:58:48.973Z,19.50
2023-03-13T14:01:15.448Z,19.60
2023-03-13T14:03:42.021Z,19.60
2023-03-13T14:06:08.534Z,19.60
2023-03-13T14:08:35.041Z,19.70
2023-03-13T14:11:01.525Z,19.50
2023-03-13T14:13:28.094Z,19.50
2023-03-13T14:15:54.617Z,19.50
2023-03-13T14:18:21.161Z,19.50
2023-03-13T14:20:47.672Z,19.50
2023-03-13T14:23:14.126Z,19.70
2023-03-13T14:25:40.628Z,19.50
2023-03-13T14:28:07.123Z,19.60
2023-03-13T14:30:33.649Z,19.50
2023-03-13T14:33:00.262Z,19.50
2023-03-13T14:35:26.759Z,19.60
2023-03-13T14:37:53.341Z,19.60
2023-03-13T14:40:19.863Z,19.50
2023-03-13T14:42:46.374Z,19.60
2023-03-13T14:45:12.892Z,19.60
2023-03-13T14:47:39.402Z,19.50
2023-03-13T14:50:05.910Z,19.50
2023-03-13T14:52:32.470Z,19.50
2023-03-13T14:54:58.988Z,19.60
2023-03-13T14:57:27.014Z,19.50
2023-03-13T14:59:53.808Z,19.60
2023-03-13T15:02:20.263Z,19.50
2023-03-13T15:04:46.840Z,19.50
2023-03-13T15:07:13.356Z,19.50
2023-03-13T15:09:39.856Z,19.50
2023-03-13T15:12:06.360Z,19.40
2023-03-13T15:14:32.851Z,19.50
2023-03-13T15:16:59.370Z,19.40
2023-03-13T15:19:25.868Z,19.50
2023-03-13T15:21:52.364Z,19.50
2023-03-13T15:24:18.844Z,19.40
2023-03-13T15:26:47.223Z,19.50
2023-03-13T15:29:15.381Z,19.40
2023-03-13T15:31:41.923Z,19.40
2023-03-13T15:34:08.487Z,19.40
2023-03-13T15:36:35.032Z,19.50
2023-03-13T15:39:01.559Z,19.50
2023-03-13T15:41:28.030Z,19.40
2023-03-13T15:43:54.510Z,19.40
2023-03-13T15:46:21.098Z,19.40
2023-03-13T15:48:47.684Z,19.30
2023-03-13T15:51:14.196Z,19.40
2023-03-13T15:53:40.708Z,19.30
2023-03-13T15:56:07.224Z,19.40
2023-03-13T15:58:33.687Z,19.40
2023-03-13T16:01:00.211Z,19.40
2023-03-13T16:03:26.694Z,19.40
2023-03-13T16:05:53.225Z,19.30
2023-03-13T16:08:34.235Z,19.40
2023-03-13T16:11:01.934Z,19.30
2023-03-13T16:13:28.448Z,19.30
2023-03-13T16:15:55.007Z,19.30
2023-03-13T16:18:21.562Z,19.30
2023-03-13T16:20:48.090Z,19.40
2023-03-13T16:23:14.595Z,19.50
2023-03-13T16:25:41.104Z,19.40
2023-03-13T16:28:07.617Z,19.30
2023-03-13T16:30:34.080Z,19.40
2023-03-13T16:33:00.694Z,19.30
2023-03-13T16:35:27.315Z,19.30
2023-03-13T16:37:53.859Z,19.50
2023-03-13T16:40:20.372Z,19.30
2023-03-13T16:42:46.898Z,19.30
2023-03-13T16:45:14.824Z,19.30
2023-03-13T16:47:41.651Z,19.30
2023-03-13T16:50:08.181Z,19.30
2023-03-13T16:52:34.681Z,19.30
2023-03-13T16:55:01.147Z,19.30
2023-03-13T16:57:27.671Z,19.30
2023-03-13T16:59:54.146Z,19.30
2023-03-13T17:02:20.791Z,19.30
2023-03-13T17:04:47.393Z,19.30
2023-03-13T17:07:13.902Z,19.30
2023-03-13T17:09:40.377Z,19.40
2023-03-13T17:12:06.878Z,19.30
2023-03-13T17:14:33.344Z,19.30
2023-03-13T17:16:59.846Z,19.30
2023-03-13T17:19:26.394Z,19.20
2023-03-13T17:21:52.896Z,19.30
2023-03-13T17:24:19.409Z,19.30
2023-03-13T17:26:45.893Z,19.20
2023-03-13T17:29:12.425Z,19.20
2023-03-13T17:31:38.997Z,19.30
2023-03-13T17:34:05.518Z,19.30
2023-03-13T17:36:32.039Z,19.30
2023-03-13T17:38:58.510Z,19.30
2023-03-13T17:41:25.029Z,19.40
2023-03-13T17:43:51.560Z,19.30
2023-03-13T17:46:18.194Z,19.30
2023-03-13T17:48:44.763Z,19.40
2023-03-13T17:51:11.308Z,19.30
2023-03-13T17:53:37.782Z,19.30
2023-03-13T17:56:04.310Z,19.40
2023-03-13T17:58:30.787Z,19.30
2023-03-13T18:00:57.278Z,19.40
2023-03-13T18:03:23.784Z,19.30
2023-03-13T18:05:50.413Z,19.30
2023-03-13T18:08:16.920Z,19.30
2023-03-13T18:10:43.440Z,19.30
2023-03-13T18:13:09.940Z,19.60
2023-03-13T18:15:36.478Z,19.30
2023-03-13T18:18:02.955Z,19.30
2023-03-13T18:20:29.465Z,19.30
2023-03-13T18:22:55.944Z,19.30
2023-03-13T18:25:22.484Z,19.30
2023-03-13T18:27:48.972Z,19.30
2023-03-13T18:30:15.467Z,19.20
2023-03-13T18:32:41.966Z,19.30
2023-03-13T18:35:08.580Z,19.30
2023-03-13T18:37:35.066Z,19.30
2023-03-13T18:40:01.601Z,19.20
2023-03-13T18:42:28.112Z,19.30
2023-03-13T18:44:54.694Z,19.30
2023-03-13T19:15:00.576Z,19.40
2023-03-13T19:17:47.472Z,19.40
2023-03-13T19:20:34.335Z,19.40
2023-03-13T19:23:24.115Z,19.60
2023-03-13T19:25:50.663Z,19.40
2023-03-13T19:28:17.147Z,19.40
2023-03-13T19:30:43.652Z,19.40
2023-03-13T19:33:10.138Z,19.40
2023-03-13T19:35:36.677Z,19.40
2023-03-13T19:38:03.191Z,19.40
2023-03-13T19:40:29.719Z,19.40
2023-03-13T19:42:56.209Z,19.40
2023-03-13T19:45:22.775Z,19.40
2023-03-13T19:47:49.321Z,19.40
2023-03-13T19:50:15.806Z,19.40
2023-03-13T19:52:42.316Z,19.50
2023-03-13T19:55:08.815Z,19.50
2023-03-13T19:57:35.283Z,19.50
2023-03-13T20:00:01.798Z,19.60
2023-03-13T20:02:28.289Z,19.60
2023-03-13T20:04:54.809Z,19.60
2023-03-13T20:07:21.296Z,19.60
2023-03-13T20:09:47.757Z,19.60
2023-03-13T20:12:14.290Z,19.60
2023-03-13T20:14:40.782Z,19.60
2023-03-13T20:17:07.307Z,19.60
2023-03-13T20:19:33.779Z,19.70
2023-03-13T20:22:00.264Z,19.70
2023-03-13T20:24:26.716Z,19.50
2023-03-13T20:26:53.186Z,19.80
2023-03-13T20:29:19.676Z,19.80
2023-03-13T20:31:46.195Z,19.80
2023-03-13T20:34:12.728Z,20.30
2023-03-13T20:36:39.307Z,19.90
2023-03-13T20:39:05.848Z,19.80
2023-03-13T20:41:32.330Z,19.80
2023-03-13T20:43:58.820Z,19.90
2023-03-13T20:46:25.369Z,19.90
2023-03-13T20:48:51.862Z,19.90
2023-03-13T20:51:18.323Z,19.90
2023-03-13T20:53:44.861Z,19.80
2023-03-13T20:56:11.367Z,19.90
2023-03-13T20:58:37.912Z,19.90
2023-03-13T21:01:04.451Z,19.90
2023-03-13T21:03:30.971Z,19.90
2023-03-13T21:05:57.498Z,19.90
2023-03-13T21:08:24.011Z,19.90
2023-03-13T21:10:50.509Z,20.00
2023-03-13T21:13:17.038Z,20.80
2023-03-13T21:15:43.517Z,20.00
2023-03-13T21:18:09.998Z,20.00
2023-03-13T21:20:36.508Z,20.00
2023-03-13T21:23:02.997Z,19.90
2023-03-13T21:25:29.490Z,20.00
2023-03-13T21:27:56.067Z,20.00
2023-03-13T21:30:22.540Z,20.00
2023-03-13T21:32:49.029Z,20.00
2023-03-13T21:35:15.556Z,20.00
2023-03-13T21:37:42.063Z,20.00
2023-03-13T21:40:09.480Z,20.00
2023-03-13T21:42:35.988Z,20.00
2023-03-13T21:45:02.466Z,20.00
2023-03-13T21:47:28.936Z,20.00
2023-03-13T21:49:55.432Z,20.00
2023-03-13T21:52:21.928Z,20.00
2023-03-13T21:54:48.424Z,20.00
2023-03-13T21:57:14.920Z,20.00
2023-03-13T21:59:41.410Z,20.00
2023-03-13T22:02:07.866Z,19.90
2023-03-13T22:04:34.418Z,19.90
2023-03-13T22:07:00.996Z,19.90
2023-03-13T22:09:27.466Z,19.80
2023-03-13T22:11:54.033Z,19.90
2023-03-13T22:14:20.531Z,19.90
2023-03-13T22:16:47.074Z,19.90
2023-03-13T22:19:13.580Z,19.90
2023-03-13T22:21:40.081Z,19.90
2023-03-13T22:24:07.872Z,19.90
2023-03-13T22:26:35.172Z,19.90
2023-03-13T22:29:01.714Z,19.90
2023-03-13T22:31:28.208Z,19.80
2023-03-13T22:33:54.667Z,19.80
2023-03-13T22:36:21.165Z,19.80
2023-03-13T22:38:47.634Z,19.80
2023-03-13T22:41:14.165Z,19.80
2023-03-13T22:43:40.630Z,19.80
2023-03-13T22:46:07.132Z,19.80
2023-03-13T22:48:33.611Z,19.90
2023-03-13T22:51:00.118Z,19.90
2023-03-13T22:53:26.601Z,19.90
2023-03-13T22:55:53.056Z,19.50
2023-03-13T22:58:19.533Z,19.90
2023-03-13T23:00:46.128Z,19.90
2023-03-13T23:03:12.727Z,19.90
2023-03-13T23:05:39.253Z,19.90
2023-03-13T23:08:05.770Z,19.90
2023-03-13T23:10:32.262Z,19.90
2023-03-13T23:12:58.755Z,19.90
2023-03-13T23:15:26.540Z,19.90
2023-03-13T23:17:56.117Z,19.90
2023-03-13T23:20:22.626Z,19.90
2023-03-13T23:22:49.236Z,19.90
2023-03-13T23:25:15.750Z,20.00
2023-03-13T23:27:42.254Z,19.90
2023-03-13T23:30:08.716Z,19.90
2023-03-13T23:32:35.240Z,19.90
2023-03-13T23:35:01.795Z,19.90
2023-03-13T23:37:28.299Z,19.90
2023-03-13T23:39:54.802Z,20.10
2023-03-13T23:42:21.261Z,19.90
2023-03-13T23:44:47.754Z,19.90
2023-03-13T23:47:14.236Z,19.90
2023-03-13T23:49:40.703Z,19.90
2023-03-13T23:52:07.163Z,19.90
2023-03-13T23:57:00.733Z,20.00
2023-03-13T23:59:27.285Z,20.00
